sensor_id;sensor_type;location;lat;lon;timestamp;P1;durP1;ratioP1;P2;durP2;ratioP2
9328;SDS011;4703;48.748;19.142;2024-02-16T00:00:10;14.03;;;11.07;;
9328;SDS011;4703;48.748;19.142;2024-02-16T00:02:38;11.90;;;10.10;;
9328;SDS011;4703;48.748;19.142;2024-02-16T00:05:10;11.93;;;10.67;;
9328;SDS011;4703;48.748;19.142;2024-02-16T00:07:40;13.00;;;10.57;;
9328;SDS011;4703;48.748;19.142;2024-02-16T00:10:08;12.90;;;10.53;;
9328;SDS011;4703;48.748;19.142;2024-02-16T00:12:35;15.27;;;11.33;;
9328;SDS011;4703;48.748;19.142;2024-02-16T00:15:03;14.00;;;10.50;;
9328;SDS011;4703;48.748;19.142;2024-02-16T00:17:31;15.90;;;10.93;;
9328;SDS011;4703;48.748;19.142;2024-02-16T00:19:58;13.10;;;9.73;;
9328;SDS011;4703;48.748;19.142;2024-02-16T00:22:25;11.80;;;9.20;;
9328;SDS011;4703;48.748;19.142;2024-02-16T00:24:52;13.23;;;9.73;;
9328;SDS011;4703;48.748;19.142;2024-02-16T00:27:19;12.10;;;10.17;;
9328;SDS011;4703;48.748;19.142;2024-02-16T00:29:46;14.23;;;10.10;;
9328;SDS011;4703;48.748;19.142;2024-02-16T00:32:14;11.37;;;9.60;;
9328;SDS011;4703;48.748;19.142;2024-02-16T00:34:44;10.47;;;9.27;;
9328;SDS011;4703;48.748;19.142;2024-02-16T00:37:11;10.10;;;8.07;;
9328;SDS011;4703;48.748;19.142;2024-02-16T00:39:38;9.40;;;7.87;;
9328;SDS011;4703;48.748;19.142;2024-02-16T00:42:08;12.17;;;8.93;;
9328;SDS011;4703;48.748;19.142;2024-02-16T00:44:37;10.20;;;9.10;;
9328;SDS011;4703;48.748;19.142;2024-02-16T00:47:05;9.80;;;8.80;;
9328;SDS011;4703;48.748;19.142;2024-02-16T00:49:32;11.20;;;9.47;;
9328;SDS011;4703;48.748;19.142;2024-02-16T00:52:00;11.30;;;8.20;;
9328;SDS011;4703;48.748;19.142;2024-02-16T00:54:28;12.70;;;9.17;;
9328;SDS011;4703;48.748;19.142;2024-02-16T00:56:55;13.70;;;10.33;;
9328;SDS011;4703;48.748;19.142;2024-02-16T00:59:30;11.70;;;8.93;;
9328;SDS011;4703;48.748;19.142;2024-02-16T01:01:58;11.03;;;9.50;;
9328;SDS011;4703;48.748;19.142;2024-02-16T01:04:25;11.10;;;8.57;;
9328;SDS011;4703;48.748;19.142;2024-02-16T01:06:52;10.23;;;7.57;;
9328;SDS011;4703;48.748;19.142;2024-02-16T01:09:19;13.60;;;9.63;;
9328;SDS011;4703;48.748;19.142;2024-02-16T01:11:46;10.97;;;9.33;;
9328;SDS011;4703;48.748;19.142;2024-02-16T01:14:14;10.30;;;8.77;;
9328;SDS011;4703;48.748;19.142;2024-02-16T01:16:41;12.90;;;9.13;;
9328;SDS011;4703;48.748;19.142;2024-02-16T01:19:09;9.07;;;8.10;;
9328;SDS011;4703;48.748;19.142;2024-02-16T01:21:36;10.50;;;8.60;;
9328;SDS011;4703;48.748;19.142;2024-02-16T01:24:03;12.87;;;9.10;;
9328;SDS011;4703;48.748;19.142;2024-02-16T01:26:32;12.80;;;9.30;;
9328;SDS011;4703;48.748;19.142;2024-02-16T01:28:59;12.33;;;9.20;;
9328;SDS011;4703;48.748;19.142;2024-02-16T01:31:28;12.23;;;9.90;;
9328;SDS011;4703;48.748;19.142;2024-02-16T01:33:55;11.40;;;9.70;;
9328;SDS011;4703;48.748;19.142;2024-02-16T01:36:22;10.73;;;9.40;;
9328;SDS011;4703;48.748;19.142;2024-02-16T01:38:49;11.73;;;9.50;;
9328;SDS011;4703;48.748;19.142;2024-02-16T01:41:16;11.73;;;8.90;;
9328;SDS011;4703;48.748;19.142;2024-02-16T01:43:43;11.30;;;9.00;;
9328;SDS011;4703;48.748;19.142;2024-02-16T01:46:11;11.03;;;9.37;;
9328;SDS011;4703;48.748;19.142;2024-02-16T01:48:38;10.33;;;8.43;;
9328;SDS011;4703;48.748;19.142;2024-02-16T01:51:06;11.67;;;8.70;;
9328;SDS011;4703;48.748;19.142;2024-02-16T01:53:35;11.67;;;9.07;;
9328;SDS011;4703;48.748;19.142;2024-02-16T01:56:06;11.93;;;9.67;;
9328;SDS011;4703;48.748;19.142;2024-02-16T01:58:33;11.43;;;9.03;;
9328;SDS011;4703;48.748;19.142;2024-02-16T02:01:00;13.33;;;8.90;;
9328;SDS011;4703;48.748;19.142;2024-02-16T02:03:28;11.27;;;9.30;;
9328;SDS011;4703;48.748;19.142;2024-02-16T02:05:56;11.10;;;8.10;;
9328;SDS011;4703;48.748;19.142;2024-02-16T02:08:25;12.43;;;10.10;;
9328;SDS011;4703;48.748;19.142;2024-02-16T02:10:52;11.03;;;9.17;;
9328;SDS011;4703;48.748;19.142;2024-02-16T02:13:20;10.67;;;9.50;;
9328;SDS011;4703;48.748;19.142;2024-02-16T02:15:48;11.13;;;9.63;;
9328;SDS011;4703;48.748;19.142;2024-02-16T02:18:15;11.30;;;8.90;;
9328;SDS011;4703;48.748;19.142;2024-02-16T02:20:43;14.90;;;8.93;;
9328;SDS011;4703;48.748;19.142;2024-02-16T02:23:10;14.63;;;8.97;;
9328;SDS011;4703;48.748;19.142;2024-02-16T02:25:37;13.07;;;9.37;;
9328;SDS011;4703;48.748;19.142;2024-02-16T02:28:06;12.87;;;9.73;;
9328;SDS011;4703;48.748;19.142;2024-02-16T02:30:34;11.87;;;9.50;;
9328;SDS011;4703;48.748;19.142;2024-02-16T02:33:02;11.83;;;9.43;;
9328;SDS011;4703;48.748;19.142;2024-02-16T02:35:29;11.60;;;9.10;;
9328;SDS011;4703;48.748;19.142;2024-02-16T02:37:56;11.37;;;9.30;;
9328;SDS011;4703;48.748;19.142;2024-02-16T02:40:28;10.70;;;9.60;;
9328;SDS011;4703;48.748;19.142;2024-02-16T02:42:55;11.77;;;9.77;;
9328;SDS011;4703;48.748;19.142;2024-02-16T02:45:22;10.20;;;9.30;;
9328;SDS011;4703;48.748;19.142;2024-02-16T02:47:50;11.17;;;9.77;;
9328;SDS011;4703;48.748;19.142;2024-02-16T02:50:18;11.23;;;9.20;;
9328;SDS011;4703;48.748;19.142;2024-02-16T02:52:45;10.93;;;9.60;;
9328;SDS011;4703;48.748;19.142;2024-02-16T02:55:12;11.47;;;10.27;;
9328;SDS011;4703;48.748;19.142;2024-02-16T02:57:39;10.70;;;9.47;;
9328;SDS011;4703;48.748;19.142;2024-02-16T03:00:07;11.80;;;9.53;;
9328;SDS011;4703;48.748;19.142;2024-02-16T03:02:38;13.27;;;9.80;;
9328;SDS011;4703;48.748;19.142;2024-02-16T03:05:06;10.50;;;9.13;;
9328;SDS011;4703;48.748;19.142;2024-02-16T03:07:34;11.73;;;9.57;;
9328;SDS011;4703;48.748;19.142;2024-02-16T03:10:01;15.67;;;10.30;;
9328;SDS011;4703;48.748;19.142;2024-02-16T03:12:29;10.50;;;9.40;;
9328;SDS011;4703;48.748;19.142;2024-02-16T03:14:58;14.00;;;9.80;;
9328;SDS011;4703;48.748;19.142;2024-02-16T03:17:25;11.67;;;8.90;;
9328;SDS011;4703;48.748;19.142;2024-02-16T03:19:52;16.10;;;10.00;;
9328;SDS011;4703;48.748;19.142;2024-02-16T03:22:20;10.93;;;9.70;;
9328;SDS011;4703;48.748;19.142;2024-02-16T03:24:47;12.47;;;10.13;;
9328;SDS011;4703;48.748;19.142;2024-02-16T03:27:14;12.67;;;10.10;;
9328;SDS011;4703;48.748;19.142;2024-02-16T03:29:42;11.63;;;10.43;;
9328;SDS011;4703;48.748;19.142;2024-02-16T03:32:09;10.87;;;9.70;;
9328;SDS011;4703;48.748;19.142;2024-02-16T03:34:37;13.97;;;9.43;;
9328;SDS011;4703;48.748;19.142;2024-02-16T03:37:04;11.80;;;9.67;;
9328;SDS011;4703;48.748;19.142;2024-02-16T03:39:31;9.93;;;8.87;;
9328;SDS011;4703;48.748;19.142;2024-02-16T03:41:58;13.80;;;9.77;;
9328;SDS011;4703;48.748;19.142;2024-02-16T03:44:26;10.53;;;9.37;;
9328;SDS011;4703;48.748;19.142;2024-02-16T03:46:53;11.30;;;9.33;;
9328;SDS011;4703;48.748;19.142;2024-02-16T03:49:22;13.60;;;9.63;;
9328;SDS011;4703;48.748;19.142;2024-02-16T03:51:51;10.40;;;9.40;;
9328;SDS011;4703;48.748;19.142;2024-02-16T03:54:20;11.17;;;8.73;;
9328;SDS011;4703;48.748;19.142;2024-02-16T03:56:47;11.40;;;9.47;;
9328;SDS011;4703;48.748;19.142;2024-02-16T03:59:15;10.00;;;8.97;;
9328;SDS011;4703;48.748;19.142;2024-02-16T04:01:42;10.50;;;9.03;;
9328;SDS011;4703;48.748;19.142;2024-02-16T04:04:09;12.90;;;9.10;;
9328;SDS011;4703;48.748;19.142;2024-02-16T04:06:36;10.47;;;9.30;;
9328;SDS011;4703;48.748;19.142;2024-02-16T04:09:03;9.23;;;8.30;;
9328;SDS011;4703;48.748;19.142;2024-02-16T04:11:34;9.20;;;7.73;;
9328;SDS011;4703;48.748;19.142;2024-02-16T04:14:01;11.37;;;8.43;;
9328;SDS011;4703;48.748;19.142;2024-02-16T04:16:28;10.00;;;7.60;;
9328;SDS011;4703;48.748;19.142;2024-02-16T04:18:55;10.27;;;8.70;;
9328;SDS011;4703;48.748;19.142;2024-02-16T04:21:22;12.10;;;8.37;;
9328;SDS011;4703;48.748;19.142;2024-02-16T04:23:50;10.10;;;8.60;;
9328;SDS011;4703;48.748;19.142;2024-02-16T04:26:17;10.50;;;8.30;;
9328;SDS011;4703;48.748;19.142;2024-02-16T04:28:44;8.83;;;7.93;;
9328;SDS011;4703;48.748;19.142;2024-02-16T04:31:11;12.47;;;9.40;;
9328;SDS011;4703;48.748;19.142;2024-02-16T04:33:38;10.97;;;9.30;;
9328;SDS011;4703;48.748;19.142;2024-02-16T04:36:06;10.40;;;9.27;;
9328;SDS011;4703;48.748;19.142;2024-02-16T04:38:34;13.30;;;9.80;;
9328;SDS011;4703;48.748;19.142;2024-02-16T04:41:01;10.40;;;8.53;;
9328;SDS011;4703;48.748;19.142;2024-02-16T04:43:31;12.63;;;10.60;;
9328;SDS011;4703;48.748;19.142;2024-02-16T04:45:58;9.87;;;8.30;;
9328;SDS011;4703;48.748;19.142;2024-02-16T04:48:25;9.00;;;8.10;;
9328;SDS011;4703;48.748;19.142;2024-02-16T04:50:53;10.90;;;8.87;;
9328;SDS011;4703;48.748;19.142;2024-02-16T04:53:20;12.27;;;10.03;;
9328;SDS011;4703;48.748;19.142;2024-02-16T04:55:47;10.30;;;9.27;;
9328;SDS011;4703;48.748;19.142;2024-02-16T04:58:14;12.70;;;9.20;;
9328;SDS011;4703;48.748;19.142;2024-02-16T05:00:41;12.50;;;9.60;;
9328;SDS011;4703;48.748;19.142;2024-02-16T05:03:08;15.20;;;9.70;;
9328;SDS011;4703;48.748;19.142;2024-02-16T05:05:35;10.60;;;8.70;;
9328;SDS011;4703;48.748;19.142;2024-02-16T05:08:02;8.50;;;7.60;;
9328;SDS011;4703;48.748;19.142;2024-02-16T05:10:30;10.03;;;8.80;;
9328;SDS011;4703;48.748;19.142;2024-02-16T05:12:57;12.73;;;9.03;;
9328;SDS011;4703;48.748;19.142;2024-02-16T05:15:24;13.77;;;9.77;;
9328;SDS011;4703;48.748;19.142;2024-02-16T05:17:52;11.80;;;8.40;;
9328;SDS011;4703;48.748;19.142;2024-02-16T05:20:19;10.60;;;8.40;;
9328;SDS011;4703;48.748;19.142;2024-02-16T05:22:47;13.70;;;9.00;;
9328;SDS011;4703;48.748;19.142;2024-02-16T05:25:15;10.33;;;8.37;;
9328;SDS011;4703;48.748;19.142;2024-02-16T05:27:45;11.03;;;8.73;;
9328;SDS011;4703;48.748;19.142;2024-02-16T05:30:14;10.47;;;8.80;;
9328;SDS011;4703;48.748;19.142;2024-02-16T05:32:42;13.60;;;8.83;;
9328;SDS011;4703;48.748;19.142;2024-02-16T05:35:11;10.33;;;8.87;;
9328;SDS011;4703;48.748;19.142;2024-02-16T05:37:40;10.80;;;9.70;;
9328;SDS011;4703;48.748;19.142;2024-02-16T05:40:11;12.50;;;9.27;;
9328;SDS011;4703;48.748;19.142;2024-02-16T05:42:56;13.00;;;9.60;;
9328;SDS011;4703;48.748;19.142;2024-02-16T05:45:25;11.67;;;9.17;;
9328;SDS011;4703;48.748;19.142;2024-02-16T05:47:55;11.87;;;8.90;;
9328;SDS011;4703;48.748;19.142;2024-02-16T05:50:22;11.53;;;10.17;;
9328;SDS011;4703;48.748;19.142;2024-02-16T05:52:50;13.40;;;10.27;;
9328;SDS011;4703;48.748;19.142;2024-02-16T05:55:18;14.80;;;11.07;;
9328;SDS011;4703;48.748;19.142;2024-02-16T05:57:45;12.90;;;10.20;;
9328;SDS011;4703;48.748;19.142;2024-02-16T06:00:12;11.00;;;8.77;;
9328;SDS011;4703;48.748;19.142;2024-02-16T06:02:42;11.60;;;10.03;;
9328;SDS011;4703;48.748;19.142;2024-02-16T06:05:09;11.43;;;8.77;;
9328;SDS011;4703;48.748;19.142;2024-02-16T06:07:37;12.63;;;10.77;;
9328;SDS011;4703;48.748;19.142;2024-02-16T06:10:05;39.40;;;24.80;;
9328;SDS011;4703;48.748;19.142;2024-02-16T06:12:38;25.57;;;18.70;;
9328;SDS011;4703;48.748;19.142;2024-02-16T06:15:06;23.20;;;18.47;;
9328;SDS011;4703;48.748;19.142;2024-02-16T06:17:33;40.40;;;27.03;;
9328;SDS011;4703;48.748;19.142;2024-02-16T06:20:03;26.20;;;20.67;;
9328;SDS011;4703;48.748;19.142;2024-02-16T06:22:32;20.67;;;12.63;;
9328;SDS011;4703;48.748;19.142;2024-02-16T06:24:59;15.90;;;11.33;;
9328;SDS011;4703;48.748;19.142;2024-02-16T06:27:26;14.37;;;11.23;;
9328;SDS011;4703;48.748;19.142;2024-02-16T06:29:54;14.23;;;10.00;;
9328;SDS011;4703;48.748;19.142;2024-02-16T06:32:22;13.07;;;8.97;;
9328;SDS011;4703;48.748;19.142;2024-02-16T06:34:49;15.70;;;10.77;;
9328;SDS011;4703;48.748;19.142;2024-02-16T06:37:16;11.60;;;9.90;;
9328;SDS011;4703;48.748;19.142;2024-02-16T06:39:43;16.37;;;10.67;;
9328;SDS011;4703;48.748;19.142;2024-02-16T06:42:10;15.03;;;10.97;;
9328;SDS011;4703;48.748;19.142;2024-02-16T06:44:40;12.53;;;11.00;;
9328;SDS011;4703;48.748;19.142;2024-02-16T06:47:07;12.70;;;11.33;;
9328;SDS011;4703;48.748;19.142;2024-02-16T06:49:34;16.80;;;11.87;;
9328;SDS011;4703;48.748;19.142;2024-02-16T06:52:01;16.87;;;10.80;;
9328;SDS011;4703;48.748;19.142;2024-02-16T06:54:28;11.77;;;9.60;;
9328;SDS011;4703;48.748;19.142;2024-02-16T06:56:55;12.57;;;10.10;;
9328;SDS011;4703;48.748;19.142;2024-02-16T06:59:22;13.93;;;10.47;;
9328;SDS011;4703;48.748;19.142;2024-02-16T07:01:49;13.87;;;10.67;;
9328;SDS011;4703;48.748;19.142;2024-02-16T07:04:17;15.37;;;11.70;;
9328;SDS011;4703;48.748;19.142;2024-02-16T07:06:44;17.20;;;11.73;;
9328;SDS011;4703;48.748;19.142;2024-02-16T07:09:12;14.20;;;11.40;;
9328;SDS011;4703;48.748;19.142;2024-02-16T07:11:41;14.97;;;11.20;;
9328;SDS011;4703;48.748;19.142;2024-02-16T07:14:16;14.33;;;10.23;;
9328;SDS011;4703;48.748;19.142;2024-02-16T07:16:44;14.43;;;10.53;;
9328;SDS011;4703;48.748;19.142;2024-02-16T07:19:11;14.10;;;11.10;;
9328;SDS011;4703;48.748;19.142;2024-02-16T07:21:39;13.73;;;11.43;;
9328;SDS011;4703;48.748;19.142;2024-02-16T07:24:06;13.00;;;9.80;;
9328;SDS011;4703;48.748;19.142;2024-02-16T07:26:33;14.60;;;11.73;;
9328;SDS011;4703;48.748;19.142;2024-02-16T07:29:00;13.67;;;11.20;;
9328;SDS011;4703;48.748;19.142;2024-02-16T07:31:34;16.77;;;11.97;;
9328;SDS011;4703;48.748;19.142;2024-02-16T07:34:01;12.57;;;11.17;;
9328;SDS011;4703;48.748;19.142;2024-02-16T07:36:29;12.37;;;10.50;;
9328;SDS011;4703;48.748;19.142;2024-02-16T07:38:58;13.97;;;11.23;;
9328;SDS011;4703;48.748;19.142;2024-02-16T07:41:25;13.80;;;11.00;;
9328;SDS011;4703;48.748;19.142;2024-02-16T07:43:53;13.13;;;11.43;;
9328;SDS011;4703;48.748;19.142;2024-02-16T07:46:20;13.77;;;11.33;;
9328;SDS011;4703;48.748;19.142;2024-02-16T07:48:49;15.03;;;10.43;;
9328;SDS011;4703;48.748;19.142;2024-02-16T07:51:16;16.53;;;11.83;;
9328;SDS011;4703;48.748;19.142;2024-02-16T07:53:43;12.83;;;11.57;;
9328;SDS011;4703;48.748;19.142;2024-02-16T07:56:12;16.00;;;11.80;;
9328;SDS011;4703;48.748;19.142;2024-02-16T07:58:43;15.70;;;12.00;;
9328;SDS011;4703;48.748;19.142;2024-02-16T08:01:11;15.23;;;13.40;;
9328;SDS011;4703;48.748;19.142;2024-02-16T08:03:42;24.00;;;18.40;;
9328;SDS011;4703;48.748;19.142;2024-02-16T08:06:09;14.53;;;11.93;;
9328;SDS011;4703;48.748;19.142;2024-02-16T08:08:36;13.80;;;11.17;;
9328;SDS011;4703;48.748;19.142;2024-02-16T08:11:04;18.90;;;15.47;;
9328;SDS011;4703;48.748;19.142;2024-02-16T08:13:31;68.77;;;43.37;;
9328;SDS011;4703;48.748;19.142;2024-02-16T08:15:58;45.23;;;27.80;;
9328;SDS011;4703;48.748;19.142;2024-02-16T08:18:25;16.83;;;13.37;;
9328;SDS011;4703;48.748;19.142;2024-02-16T08:20:52;15.50;;;11.07;;
9328;SDS011;4703;48.748;19.142;2024-02-16T08:23:19;11.57;;;10.33;;
9328;SDS011;4703;48.748;19.142;2024-02-16T08:25:46;15.40;;;10.90;;
9328;SDS011;4703;48.748;19.142;2024-02-16T08:28:13;12.03;;;10.70;;
9328;SDS011;4703;48.748;19.142;2024-02-16T08:30:40;17.17;;;11.63;;
9328;SDS011;4703;48.748;19.142;2024-02-16T08:33:10;12.93;;;11.57;;
9328;SDS011;4703;48.748;19.142;2024-02-16T08:35:39;13.80;;;10.43;;
9328;SDS011;4703;48.748;19.142;2024-02-16T08:38:07;15.37;;;12.20;;
9328;SDS011;4703;48.748;19.142;2024-02-16T08:40:37;14.97;;;12.00;;
9328;SDS011;4703;48.748;19.142;2024-02-16T08:43:05;16.53;;;13.23;;
9328;SDS011;4703;48.748;19.142;2024-02-16T08:45:36;18.60;;;12.80;;
9328;SDS011;4703;48.748;19.142;2024-02-16T08:48:03;16.10;;;11.70;;
9328;SDS011;4703;48.748;19.142;2024-02-16T08:50:31;14.00;;;12.40;;
9328;SDS011;4703;48.748;19.142;2024-02-16T08:52:58;15.83;;;13.53;;
9328;SDS011;4703;48.748;19.142;2024-02-16T08:55:25;13.23;;;11.23;;
9328;SDS011;4703;48.748;19.142;2024-02-16T08:57:52;13.63;;;12.00;;
9328;SDS011;4703;48.748;19.142;2024-02-16T09:00:19;13.63;;;12.10;;
9328;SDS011;4703;48.748;19.142;2024-02-16T09:02:48;30.93;;;22.90;;
9328;SDS011;4703;48.748;19.142;2024-02-16T09:05:16;40.07;;;29.77;;
9328;SDS011;4703;48.748;19.142;2024-02-16T09:07:50;41.40;;;30.97;;
9328;SDS011;4703;48.748;19.142;2024-02-16T09:10:23;20.53;;;15.97;;
9328;SDS011;4703;48.748;19.142;2024-02-16T09:12:53;16.87;;;13.17;;
9328;SDS011;4703;48.748;19.142;2024-02-16T09:15:22;15.47;;;12.80;;
9328;SDS011;4703;48.748;19.142;2024-02-16T09:17:50;14.27;;;12.20;;
9328;SDS011;4703;48.748;19.142;2024-02-16T09:20:25;15.20;;;12.10;;
9328;SDS011;4703;48.748;19.142;2024-02-16T09:23:09;14.20;;;12.70;;
9328;SDS011;4703;48.748;19.142;2024-02-16T09:25:42;15.93;;;13.27;;
9328;SDS011;4703;48.748;19.142;2024-02-16T09:28:10;15.73;;;12.90;;
9328;SDS011;4703;48.748;19.142;2024-02-16T09:30:48;16.13;;;13.17;;
9328;SDS011;4703;48.748;19.142;2024-02-16T09:33:16;16.10;;;12.33;;
9328;SDS011;4703;48.748;19.142;2024-02-16T09:35:45;12.60;;;10.70;;
9328;SDS011;4703;48.748;19.142;2024-02-16T09:38:12;14.30;;;12.30;;
9328;SDS011;4703;48.748;19.142;2024-02-16T09:40:40;15.00;;;10.80;;
9328;SDS011;4703;48.748;19.142;2024-02-16T09:43:07;15.83;;;11.70;;
9328;SDS011;4703;48.748;19.142;2024-02-16T09:45:38;15.40;;;11.27;;
9328;SDS011;4703;48.748;19.142;2024-02-16T09:48:08;12.60;;;10.97;;
9328;SDS011;4703;48.748;19.142;2024-02-16T09:50:36;14.77;;;11.83;;
9328;SDS011;4703;48.748;19.142;2024-02-16T09:53:21;13.40;;;11.33;;
9328;SDS011;4703;48.748;19.142;2024-02-16T10:01:32;15.20;;;11.57;;
9328;SDS011;4703;48.748;19.142;2024-02-16T10:04:11;15.10;;;10.27;;
9328;SDS011;4703;48.748;19.142;2024-02-16T10:08:46;12.77;;;11.30;;
9328;SDS011;4703;48.748;19.142;2024-02-16T10:11:36;11.73;;;10.27;;
9328;SDS011;4703;48.748;19.142;2024-02-16T10:17:08;13.80;;;12.03;;
9328;SDS011;4703;48.748;19.142;2024-02-16T10:19:34;19.13;;;14.77;;
9328;SDS011;4703;48.748;19.142;2024-02-16T10:22:07;12.73;;;11.33;;
9328;SDS011;4703;48.748;19.142;2024-02-16T10:24:36;12.93;;;11.33;;
9328;SDS011;4703;48.748;19.142;2024-02-16T10:27:04;12.80;;;10.40;;
9328;SDS011;4703;48.748;19.142;2024-02-16T10:29:38;12.60;;;10.60;;
9328;SDS011;4703;48.748;19.142;2024-02-16T10:32:12;11.70;;;10.50;;
9328;SDS011;4703;48.748;19.142;2024-02-16T10:34:40;11.80;;;9.60;;
9328;SDS011;4703;48.748;19.142;2024-02-16T10:37:08;13.43;;;11.20;;
9328;SDS011;4703;48.748;19.142;2024-02-16T10:39:36;12.67;;;10.77;;
9328;SDS011;4703;48.748;19.142;2024-02-16T10:42:11;10.40;;;9.40;;
9328;SDS011;4703;48.748;19.142;2024-02-16T10:44:48;11.60;;;8.97;;
9328;SDS011;4703;48.748;19.142;2024-02-16T10:47:40;11.50;;;10.30;;
9328;SDS011;4703;48.748;19.142;2024-02-16T10:50:10;108.27;;;59.20;;
9328;SDS011;4703;48.748;19.142;2024-02-16T10:52:41;34.90;;;25.00;;
9328;SDS011;4703;48.748;19.142;2024-02-16T10:55:11;55.90;;;41.00;;
9328;SDS011;4703;48.748;19.142;2024-02-16T10:57:45;121.33;;;73.77;;
9328;SDS011;4703;48.748;19.142;2024-02-16T11:00:19;45.53;;;31.30;;
9328;SDS011;4703;48.748;19.142;2024-02-16T11:04:02;22.93;;;20.40;;
9328;SDS011;4703;48.748;19.142;2024-02-16T11:06:46;14.53;;;12.13;;
9328;SDS011;4703;48.748;19.142;2024-02-16T11:09:30;13.57;;;9.90;;
9328;SDS011;4703;48.748;19.142;2024-02-16T11:12:45;10.47;;;8.83;;
9328;SDS011;4703;48.748;19.142;2024-02-16T11:16:08;11.70;;;9.63;;
9328;SDS011;4703;48.748;19.142;2024-02-16T11:18:41;12.00;;;9.60;;
9328;SDS011;4703;48.748;19.142;2024-02-16T11:21:16;12.07;;;9.17;;
9328;SDS011;4703;48.748;19.142;2024-02-16T11:23:44;14.00;;;10.63;;
9328;SDS011;4703;48.748;19.142;2024-02-16T11:26:17;10.63;;;9.30;;
9328;SDS011;4703;48.748;19.142;2024-02-16T11:28:45;13.57;;;9.50;;
9328;SDS011;4703;48.748;19.142;2024-02-16T11:31:13;12.10;;;10.07;;
9328;SDS011;4703;48.748;19.142;2024-02-16T11:33:44;12.90;;;10.10;;
9328;SDS011;4703;48.748;19.142;2024-02-16T11:36:12;12.70;;;9.70;;
9328;SDS011;4703;48.748;19.142;2024-02-16T11:38:39;11.63;;;9.43;;
9328;SDS011;4703;48.748;19.142;2024-02-16T11:41:07;12.73;;;9.17;;
9328;SDS011;4703;48.748;19.142;2024-02-16T11:43:34;9.80;;;8.60;;
9328;SDS011;4703;48.748;19.142;2024-02-16T11:46:13;13.00;;;9.57;;
9328;SDS011;4703;48.748;19.142;2024-02-16T11:48:46;12.10;;;8.90;;
9328;SDS011;4703;48.748;19.142;2024-02-16T11:51:17;13.77;;;9.90;;
9328;SDS011;4703;48.748;19.142;2024-02-16T11:53:44;9.60;;;8.40;;
9328;SDS011;4703;48.748;19.142;2024-02-16T11:56:23;14.37;;;10.37;;
9328;SDS011;4703;48.748;19.142;2024-02-16T11:58:51;9.47;;;8.50;;
9328;SDS011;4703;48.748;19.142;2024-02-16T12:01:22;9.87;;;8.50;;
9328;SDS011;4703;48.748;19.142;2024-02-16T12:03:49;8.70;;;7.90;;
9328;SDS011;4703;48.748;19.142;2024-02-16T12:06:20;10.93;;;9.50;;
9328;SDS011;4703;48.748;19.142;2024-02-16T12:08:50;17.77;;;13.10;;
9328;SDS011;4703;48.748;19.142;2024-02-16T12:11:21;10.87;;;9.43;;
9328;SDS011;4703;48.748;19.142;2024-02-16T12:13:55;12.23;;;8.60;;
9328;SDS011;4703;48.748;19.142;2024-02-16T12:16:22;8.37;;;7.50;;
9328;SDS011;4703;48.748;19.142;2024-02-16T12:19:01;9.03;;;7.33;;
9328;SDS011;4703;48.748;19.142;2024-02-16T12:22:03;11.97;;;7.60;;
9328;SDS011;4703;48.748;19.142;2024-02-16T12:24:56;7.27;;;6.43;;
9328;SDS011;4703;48.748;19.142;2024-02-16T12:27:34;7.80;;;5.50;;
9328;SDS011;4703;48.748;19.142;2024-02-16T12:30:03;7.23;;;6.40;;
9328;SDS011;4703;48.748;19.142;2024-02-16T12:32:33;8.57;;;5.90;;
9328;SDS011;4703;48.748;19.142;2024-02-16T12:35:05;6.27;;;5.67;;
9328;SDS011;4703;48.748;19.142;2024-02-16T12:38:00;8.03;;;6.60;;
9328;SDS011;4703;48.748;19.142;2024-02-16T12:40:31;6.83;;;6.13;;
9328;SDS011;4703;48.748;19.142;2024-02-16T12:43:14;6.00;;;5.40;;
9328;SDS011;4703;48.748;19.142;2024-02-16T12:45:42;7.37;;;5.93;;
9328;SDS011;4703;48.748;19.142;2024-02-16T12:48:09;7.20;;;5.27;;
9328;SDS011;4703;48.748;19.142;2024-02-16T12:50:44;7.73;;;7.00;;
9328;SDS011;4703;48.748;19.142;2024-02-16T12:53:17;6.80;;;6.10;;
9328;SDS011;4703;48.748;19.142;2024-02-16T12:55:44;6.90;;;6.30;;
9328;SDS011;4703;48.748;19.142;2024-02-16T12:58:11;6.30;;;5.50;;
9328;SDS011;4703;48.748;19.142;2024-02-16T13:00:39;6.83;;;6.13;;
9328;SDS011;4703;48.748;19.142;2024-02-16T13:03:07;8.70;;;6.83;;
9328;SDS011;4703;48.748;19.142;2024-02-16T13:05:34;7.50;;;5.80;;
9328;SDS011;4703;48.748;19.142;2024-02-16T13:08:02;7.77;;;6.17;;
9328;SDS011;4703;48.748;19.142;2024-02-16T13:10:31;9.90;;;5.90;;
9328;SDS011;4703;48.748;19.142;2024-02-16T13:13:07;7.27;;;6.57;;
9328;SDS011;4703;48.748;19.142;2024-02-16T13:15:33;7.47;;;6.77;;
9328;SDS011;4703;48.748;19.142;2024-02-16T13:18:01;8.73;;;6.60;;
9328;SDS011;4703;48.748;19.142;2024-02-16T13:20:28;6.93;;;6.23;;
9328;SDS011;4703;48.748;19.142;2024-02-16T13:22:56;6.23;;;5.33;;
9328;SDS011;4703;48.748;19.142;2024-02-16T13:25:26;7.10;;;5.90;;
9328;SDS011;4703;48.748;19.142;2024-02-16T13:27:53;6.37;;;5.77;;
9328;SDS011;4703;48.748;19.142;2024-02-16T13:30:20;7.50;;;6.20;;
9328;SDS011;4703;48.748;19.142;2024-02-16T13:32:47;8.07;;;5.83;;
9328;SDS011;4703;48.748;19.142;2024-02-16T13:35:15;8.63;;;6.37;;
9328;SDS011;4703;48.748;19.142;2024-02-16T13:37:46;6.53;;;5.70;;
9328;SDS011;4703;48.748;19.142;2024-02-16T13:40:14;8.33;;;7.33;;
9328;SDS011;4703;48.748;19.142;2024-02-16T13:42:42;7.37;;;6.60;;
9328;SDS011;4703;48.748;19.142;2024-02-16T13:45:10;8.17;;;5.30;;
9328;SDS011;4703;48.748;19.142;2024-02-16T13:47:39;9.90;;;6.10;;
9328;SDS011;4703;48.748;19.142;2024-02-16T13:50:07;6.23;;;5.50;;
9328;SDS011;4703;48.748;19.142;2024-02-16T13:52:34;15.27;;;12.90;;
9328;SDS011;4703;48.748;19.142;2024-02-16T13:55:01;8.40;;;7.13;;
9328;SDS011;4703;48.748;19.142;2024-02-16T13:57:29;13.00;;;10.00;;
9328;SDS011;4703;48.748;19.142;2024-02-16T13:59:56;8.50;;;6.87;;
9328;SDS011;4703;48.748;19.142;2024-02-16T14:02:24;6.83;;;6.07;;
9328;SDS011;4703;48.748;19.142;2024-02-16T14:04:51;6.80;;;6.10;;
9328;SDS011;4703;48.748;19.142;2024-02-16T14:07:19;8.30;;;7.37;;
9328;SDS011;4703;48.748;19.142;2024-02-16T14:09:46;6.70;;;6.10;;
9328;SDS011;4703;48.748;19.142;2024-02-16T14:12:13;9.10;;;8.07;;
9328;SDS011;4703;48.748;19.142;2024-02-16T14:14:40;7.13;;;6.30;;
9328;SDS011;4703;48.748;19.142;2024-02-16T14:17:07;7.03;;;6.40;;
9328;SDS011;4703;48.748;19.142;2024-02-16T14:19:34;7.67;;;6.90;;
9328;SDS011;4703;48.748;19.142;2024-02-16T14:22:04;6.73;;;6.10;;
9328;SDS011;4703;48.748;19.142;2024-02-16T14:24:33;7.13;;;6.40;;
9328;SDS011;4703;48.748;19.142;2024-02-16T14:27:00;7.07;;;6.10;;
9328;SDS011;4703;48.748;19.142;2024-02-16T14:29:27;7.37;;;6.20;;
9328;SDS011;4703;48.748;19.142;2024-02-16T14:31:55;8.30;;;7.23;;
9328;SDS011;4703;48.748;19.142;2024-02-16T14:34:22;9.10;;;6.97;;
9328;SDS011;4703;48.748;19.142;2024-02-16T14:36:50;7.83;;;6.73;;
9328;SDS011;4703;48.748;19.142;2024-02-16T14:39:16;6.20;;;5.70;;
9328;SDS011;4703;48.748;19.142;2024-02-16T14:41:43;8.60;;;6.67;;
9328;SDS011;4703;48.748;19.142;2024-02-16T14:44:10;7.73;;;6.27;;
9328;SDS011;4703;48.748;19.142;2024-02-16T14:46:38;8.83;;;6.37;;
9328;SDS011;4703;48.748;19.142;2024-02-16T14:49:05;10.17;;;7.90;;
9328;SDS011;4703;48.748;19.142;2024-02-16T14:51:39;7.70;;;6.17;;
9328;SDS011;4703;48.748;19.142;2024-02-16T14:54:08;8.27;;;7.30;;
9328;SDS011;4703;48.748;19.142;2024-02-16T14:56:36;6.90;;;5.93;;
9328;SDS011;4703;48.748;19.142;2024-02-16T14:59:04;7.33;;;6.27;;
9328;SDS011;4703;48.748;19.142;2024-02-16T15:01:31;7.83;;;6.50;;
9328;SDS011;4703;48.748;19.142;2024-02-16T15:03:58;11.00;;;7.73;;
9328;SDS011;4703;48.748;19.142;2024-02-16T15:06:30;9.67;;;6.30;;
9328;SDS011;4703;48.748;19.142;2024-02-16T15:09:00;8.20;;;6.20;;